Current Weather

Chicago O'Hare International

Chicago, Illinois (KORD)

Report from: Sunday, November 27, 2022 1:51 AM CST
Current time: Sunday, November 27, 2022 2:40 AM CST

Nearby weather
Weather history
Weather forecast

Temperature6.7°C (44.1°F)
Wind chill5.3°C (41.5°F)
Dew point2.2°C (36.0°F)
Winds 4 kts (2.1 m/s, 4.6 mph) East-Northeast (60°)
Visibility9 mi. (14.5 km)
Clouds Ceiling: Broken clouds 17,000 ft. (5,182 m)
Broken clouds 20,000 ft. (6,096 m)
Altimeter29.62 in.Hg (1003 mB)
Relative humidity73 %
Density altitude-544 ft. (-166 m)
Sea-level pressure100.3 kPa (1003 mB, 29.62 in.Hg)
Remarks System requires maintenance
Automated weather observing station with precipitation discriminator
Flight conditions Visual Meteorological Conditions
Raw dataKORD 270751Z 06004KT 9SM BKN170 BKN200 07/02 A2962 RMK AO2 SLP030 T00670022 $
An error has occurred. This application may no longer respond until reloaded. Reload 🗙